sensor_id;sensor_type;location;lat;lon;timestamp;P1;durP1;ratioP1;P2;durP2;ratioP2
59571;SDS011;74587;45.880;11.484;2024-01-06T00:01:47;1.25;;;0.10;;
59571;SDS011;74587;45.880;11.484;2024-01-06T00:04:13;1.00;;;0.00;;
59571;SDS011;74587;45.880;11.484;2024-01-06T00:06:38;3.85;;;0.55;;
59571;SDS011;74587;45.880;11.484;2024-01-06T00:09:04;2.77;;;0.30;;
59571;SDS011;74587;45.880;11.484;2024-01-06T00:11:30;2.10;;;0.30;;
59571;SDS011;74587;45.880;11.484;2024-01-06T00:13:56;2.13;;;0.20;;
59571;SDS011;74587;45.880;11.484;2024-01-06T00:16:21;1.95;;;0.20;;
59571;SDS011;74587;45.880;11.484;2024-01-06T00:18:47;2.40;;;0.20;;
59571;SDS011;74587;45.880;11.484;2024-01-06T00:21:13;2.22;;;0.15;;
59571;SDS011;74587;45.880;11.484;2024-01-06T00:23:42;2.05;;;0.20;;
59571;SDS011;74587;45.880;11.484;2024-01-06T00:26:08;1.67;;;0.20;;
59571;SDS011;74587;45.880;11.484;2024-01-06T00:28:35;2.53;;;0.27;;
59571;SDS011;74587;45.880;11.484;2024-01-06T00:31:01;1.38;;;0.10;;
59571;SDS011;74587;45.880;11.484;2024-01-06T00:33:26;1.25;;;0.10;;
59571;SDS011;74587;45.880;11.484;2024-01-06T00:35:52;1.07;;;0.00;;
59571;SDS011;74587;45.880;11.484;2024-01-06T00:38:20;1.17;;;0.10;;
59571;SDS011;74587;45.880;11.484;2024-01-06T00:40:45;1.00;;;0.10;;
59571;SDS011;74587;45.880;11.484;2024-01-06T00:43:11;0.90;;;0.00;;
59571;SDS011;74587;45.880;11.484;2024-01-06T00:45:37;0.35;;;0.00;;
59571;SDS011;74587;45.880;11.484;2024-01-06T00:48:03;0.50;;;0.00;;
59571;SDS011;74587;45.880;11.484;2024-01-06T00:50:29;1.10;;;0.00;;
59571;SDS011;74587;45.880;11.484;2024-01-06T00:52:55;1.37;;;0.10;;
59571;SDS011;74587;45.880;11.484;2024-01-06T00:55:21;0.57;;;0.00;;
59571;SDS011;74587;45.880;11.484;2024-01-06T00:57:47;0.38;;;0.00;;
59571;SDS011;74587;45.880;11.484;2024-01-06T01:00:13;0.50;;;0.00;;
59571;SDS011;74587;45.880;11.484;2024-01-06T01:02:39;0.63;;;0.00;;
59571;SDS011;74587;45.880;11.484;2024-01-06T01:05:05;0.75;;;0.00;;
59571;SDS011;74587;45.880;11.484;2024-01-06T01:07:34;0.20;;;0.00;;
59571;SDS011;74587;45.880;11.484;2024-01-06T01:10:00;0.57;;;0.00;;
59571;SDS011;74587;45.880;11.484;2024-01-06T01:12:26;1.60;;;0.00;;
59571;SDS011;74587;45.880;11.484;2024-01-06T01:14:52;0.55;;;0.00;;
59571;SDS011;74587;45.880;11.484;2024-01-06T01:17:18;0.67;;;0.00;;
59571;SDS011;74587;45.880;11.484;2024-01-06T01:19:44;0.68;;;0.00;;
59571;SDS011;74587;45.880;11.484;2024-01-06T01:22:10;1.02;;;0.00;;
59571;SDS011;74587;45.880;11.484;2024-01-06T01:24:35;1.00;;;0.10;;
59571;SDS011;74587;45.880;11.484;2024-01-06T01:27:01;0.90;;;0.00;;
59571;SDS011;74587;45.880;11.484;2024-01-06T01:29:27;0.30;;;0.00;;
59571;SDS011;74587;45.880;11.484;2024-01-06T01:31:53;0.27;;;0.00;;
59571;SDS011;74587;45.880;11.484;2024-01-06T01:34:19;0.20;;;0.00;;
59571;SDS011;74587;45.880;11.484;2024-01-06T01:36:44;0.40;;;0.00;;
59571;SDS011;74587;45.880;11.484;2024-01-06T01:39:10;0.43;;;0.00;;
59571;SDS011;74587;45.880;11.484;2024-01-06T01:41:36;0.20;;;0.00;;
59571;SDS011;74587;45.880;11.484;2024-01-06T01:44:02;0.60;;;0.00;;
59571;SDS011;74587;45.880;11.484;2024-01-06T01:46:28;0.50;;;0.00;;
59571;SDS011;74587;45.880;11.484;2024-01-06T01:48:55;0.50;;;0.00;;
59571;SDS011;74587;45.880;11.484;2024-01-06T01:51:21;0.43;;;0.00;;
59571;SDS011;74587;45.880;11.484;2024-01-06T01:53:48;0.30;;;0.00;;
59571;SDS011;74587;45.880;11.484;2024-01-06T01:56:14;0.43;;;0.03;;
59571;SDS011;74587;45.880;11.484;2024-01-06T01:58:41;0.70;;;0.00;;
59571;SDS011;74587;45.880;11.484;2024-01-06T02:01:07;0.10;;;0.00;;
59571;SDS011;74587;45.880;11.484;2024-01-06T02:03:34;0.55;;;0.00;;
59571;SDS011;74587;45.880;11.484;2024-01-06T02:06:00;0.45;;;0.00;;
59571;SDS011;74587;45.880;11.484;2024-01-06T02:08:26;1.40;;;0.00;;
59571;SDS011;74587;45.880;11.484;2024-01-06T02:10:55;0.23;;;0.00;;
59571;SDS011;74587;45.880;11.484;2024-01-06T02:13:22;0.20;;;0.00;;
59571;SDS011;74587;45.880;11.484;2024-01-06T02:15:48;0.38;;;0.00;;
59571;SDS011;74587;45.880;11.484;2024-01-06T02:18:14;0.00;;;0.00;;
59571;SDS011;74587;45.880;11.484;2024-01-06T02:20:41;0.40;;;0.00;;
59571;SDS011;74587;45.880;11.484;2024-01-06T02:23:08;0.43;;;0.00;;
59571;SDS011;74587;45.880;11.484;2024-01-06T02:25:34;0.20;;;0.00;;
59571;SDS011;74587;45.880;11.484;2024-01-06T02:28:00;0.03;;;0.00;;
59571;SDS011;74587;45.880;11.484;2024-01-06T02:30:26;0.20;;;0.00;;
59571;SDS011;74587;45.880;11.484;2024-01-06T02:32:52;0.00;;;0.00;;
59571;SDS011;74587;45.880;11.484;2024-01-06T02:35:17;0.10;;;0.00;;
59571;SDS011;74587;45.880;11.484;2024-01-06T02:37:43;0.77;;;0.00;;
59571;SDS011;74587;45.880;11.484;2024-01-06T02:40:09;0.32;;;0.00;;
59571;SDS011;74587;45.880;11.484;2024-01-06T02:42:35;0.68;;;0.00;;
59571;SDS011;74587;45.880;11.484;2024-01-06T02:45:02;0.30;;;0.00;;
59571;SDS011;74587;45.880;11.484;2024-01-06T02:47:27;0.40;;;0.00;;
59571;SDS011;74587;45.880;11.484;2024-01-06T02:49:54;0.40;;;0.00;;
59571;SDS011;74587;45.880;11.484;2024-01-06T02:52:19;0.30;;;0.00;;
59571;SDS011;74587;45.880;11.484;2024-01-06T02:54:45;0.63;;;0.00;;
59571;SDS011;74587;45.880;11.484;2024-01-06T02:57:11;0.10;;;0.00;;
59571;SDS011;74587;45.880;11.484;2024-01-06T02:59:38;0.20;;;0.00;;
59571;SDS011;74587;45.880;11.484;2024-01-06T03:02:04;0.73;;;0.00;;
59571;SDS011;74587;45.880;11.484;2024-01-06T03:04:30;0.32;;;0.00;;
59571;SDS011;74587;45.880;11.484;2024-01-06T03:06:55;0.00;;;0.00;;
59571;SDS011;74587;45.880;11.484;2024-01-06T03:09:21;0.75;;;0.00;;
59571;SDS011;74587;45.880;11.484;2024-01-06T03:11:47;0.20;;;0.00;;
59571;SDS011;74587;45.880;11.484;2024-01-06T03:14:13;0.15;;;0.00;;
59571;SDS011;74587;45.880;11.484;2024-01-06T03:16:38;1.23;;;0.10;;
59571;SDS011;74587;45.880;11.484;2024-01-06T03:19:04;1.83;;;0.10;;
59571;SDS011;74587;45.880;11.484;2024-01-06T03:21:30;0.20;;;0.00;;
59571;SDS011;74587;45.880;11.484;2024-01-06T03:23:56;0.10;;;0.00;;
59571;SDS011;74587;45.880;11.484;2024-01-06T03:26:22;0.20;;;0.00;;
59571;SDS011;74587;45.880;11.484;2024-01-06T03:28:49;0.35;;;0.00;;
59571;SDS011;74587;45.880;11.484;2024-01-06T03:31:15;4.87;;;1.33;;
59571;SDS011;74587;45.880;11.484;2024-01-06T03:33:41;1.77;;;0.20;;
59571;SDS011;74587;45.880;11.484;2024-01-06T03:36:07;1.17;;;0.10;;
59571;SDS011;74587;45.880;11.484;2024-01-06T03:38:33;1.60;;;0.10;;
59571;SDS011;74587;45.880;11.484;2024-01-06T03:40:59;0.17;;;0.00;;
59571;SDS011;74587;45.880;11.484;2024-01-06T03:43:25;0.30;;;0.00;;
59571;SDS011;74587;45.880;11.484;2024-01-06T03:45:51;1.20;;;0.00;;
59571;SDS011;74587;45.880;11.484;2024-01-06T03:48:16;4.18;;;0.50;;
59571;SDS011;74587;45.880;11.484;2024-01-06T03:50:42;0.57;;;0.00;;
59571;SDS011;74587;45.880;11.484;2024-01-06T03:53:08;1.05;;;0.00;;
59571;SDS011;74587;45.880;11.484;2024-01-06T03:55:33;1.07;;;0.00;;
59571;SDS011;74587;45.880;11.484;2024-01-06T03:57:59;0.20;;;0.00;;
59571;SDS011;74587;45.880;11.484;2024-01-06T04:00:25;0.30;;;0.00;;
59571;SDS011;74587;45.880;11.484;2024-01-06T04:02:51;0.17;;;0.00;;
59571;SDS011;74587;45.880;11.484;2024-01-06T04:05:17;0.30;;;0.00;;
59571;SDS011;74587;45.880;11.484;2024-01-06T04:07:43;0.30;;;0.00;;
59571;SDS011;74587;45.880;11.484;2024-01-06T04:10:09;0.43;;;0.00;;
59571;SDS011;74587;45.880;11.484;2024-01-06T04:12:34;0.10;;;0.00;;
59571;SDS011;74587;45.880;11.484;2024-01-06T04:15:00;0.10;;;0.00;;
59571;SDS011;74587;45.880;11.484;2024-01-06T04:17:26;0.00;;;0.00;;
59571;SDS011;74587;45.880;11.484;2024-01-06T04:19:52;0.10;;;0.00;;
59571;SDS011;74587;45.880;11.484;2024-01-06T04:22:18;0.20;;;0.00;;
59571;SDS011;74587;45.880;11.484;2024-01-06T04:24:44;0.30;;;0.00;;
59571;SDS011;74587;45.880;11.484;2024-01-06T04:27:10;0.10;;;0.00;;
59571;SDS011;74587;45.880;11.484;2024-01-06T04:29:35;0.25;;;0.00;;
59571;SDS011;74587;45.880;11.484;2024-01-06T04:32:01;0.73;;;0.00;;
59571;SDS011;74587;45.880;11.484;2024-01-06T04:34:27;11.15;;;0.35;;
59571;SDS011;74587;45.880;11.484;2024-01-06T04:36:53;11.20;;;0.20;;
59571;SDS011;74587;45.880;11.484;2024-01-06T04:39:19;2.92;;;0.10;;
59571;SDS011;74587;45.880;11.484;2024-01-06T04:41:44;0.88;;;0.10;;
59571;SDS011;74587;45.880;11.484;2024-01-06T04:44:10;0.53;;;0.00;;
59571;SDS011;74587;45.880;11.484;2024-01-06T04:46:36;0.28;;;0.00;;
59571;SDS011;74587;45.880;11.484;2024-01-06T04:49:02;0.70;;;0.00;;
59571;SDS011;74587;45.880;11.484;2024-01-06T04:51:27;1.10;;;0.00;;
59571;SDS011;74587;45.880;11.484;2024-01-06T04:53:53;2.03;;;0.40;;
59571;SDS011;74587;45.880;11.484;2024-01-06T04:56:19;0.20;;;0.00;;
59571;SDS011;74587;45.880;11.484;2024-01-06T04:58:44;0.10;;;0.00;;
59571;SDS011;74587;45.880;11.484;2024-01-06T05:01:10;0.20;;;0.00;;
59571;SDS011;74587;45.880;11.484;2024-01-06T05:03:37;0.75;;;0.00;;
59571;SDS011;74587;45.880;11.484;2024-01-06T05:06:02;0.40;;;0.00;;
59571;SDS011;74587;45.880;11.484;2024-01-06T05:08:29;0.20;;;0.00;;
59571;SDS011;74587;45.880;11.484;2024-01-06T05:10:57;0.20;;;0.00;;
59571;SDS011;74587;45.880;11.484;2024-01-06T05:13:24;1.13;;;0.00;;
59571;SDS011;74587;45.880;11.484;2024-01-06T05:15:49;0.63;;;0.00;;
59571;SDS011;74587;45.880;11.484;2024-01-06T05:18:15;0.20;;;0.00;;
59571;SDS011;74587;45.880;11.484;2024-01-06T05:20:42;0.10;;;0.00;;
59571;SDS011;74587;45.880;11.484;2024-01-06T05:23:08;0.40;;;0.00;;
59571;SDS011;74587;45.880;11.484;2024-01-06T05:25:34;2.33;;;0.43;;
59571;SDS011;74587;45.880;11.484;2024-01-06T05:28:00;1.13;;;0.10;;
59571;SDS011;74587;45.880;11.484;2024-01-06T05:30:26;2.83;;;0.55;;
59571;SDS011;74587;45.880;11.484;2024-01-06T05:32:51;3.07;;;0.73;;
59571;SDS011;74587;45.880;11.484;2024-01-06T05:35:17;17.73;;;3.35;;
59571;SDS011;74587;45.880;11.484;2024-01-06T05:37:43;12.60;;;6.10;;
59571;SDS011;74587;45.880;11.484;2024-01-06T05:40:09;5.22;;;1.65;;
59571;SDS011;74587;45.880;11.484;2024-01-06T05:42:36;5.97;;;1.95;;
59571;SDS011;74587;45.880;11.484;2024-01-06T05:45:02;2.80;;;0.52;;
59571;SDS011;74587;45.880;11.484;2024-01-06T05:47:28;5.90;;;2.63;;
59571;SDS011;74587;45.880;11.484;2024-01-06T05:49:53;3.42;;;0.80;;
59571;SDS011;74587;45.880;11.484;2024-01-06T05:52:19;1.83;;;0.10;;
59571;SDS011;74587;45.880;11.484;2024-01-06T05:54:45;1.25;;;0.20;;
59571;SDS011;74587;45.880;11.484;2024-01-06T05:57:11;3.40;;;0.67;;
59571;SDS011;74587;45.880;11.484;2024-01-06T05:59:37;4.35;;;1.50;;
59571;SDS011;74587;45.880;11.484;2024-01-06T06:02:02;2.88;;;0.60;;
59571;SDS011;74587;45.880;11.484;2024-01-06T06:04:28;1.25;;;0.10;;
59571;SDS011;74587;45.880;11.484;2024-01-06T06:06:54;2.83;;;0.40;;
59571;SDS011;74587;45.880;11.484;2024-01-06T06:09:20;2.22;;;0.30;;
59571;SDS011;74587;45.880;11.484;2024-01-06T06:11:47;0.88;;;0.10;;
59571;SDS011;74587;45.880;11.484;2024-01-06T06:14:13;1.47;;;0.10;;
59571;SDS011;74587;45.880;11.484;2024-01-06T06:16:39;1.08;;;0.10;;
59571;SDS011;74587;45.880;11.484;2024-01-06T06:19:04;1.43;;;0.10;;
59571;SDS011;74587;45.880;11.484;2024-01-06T06:21:31;3.03;;;1.05;;
59571;SDS011;74587;45.880;11.484;2024-01-06T06:23:57;1.23;;;0.10;;
59571;SDS011;74587;45.880;11.484;2024-01-06T06:26:22;1.87;;;0.17;;
59571;SDS011;74587;45.880;11.484;2024-01-06T06:28:48;1.77;;;0.10;;
59571;SDS011;74587;45.880;11.484;2024-01-06T06:31:14;0.90;;;0.00;;
59571;SDS011;74587;45.880;11.484;2024-01-06T06:33:40;0.87;;;0.00;;
59571;SDS011;74587;45.880;11.484;2024-01-06T06:36:05;1.95;;;0.00;;
59571;SDS011;74587;45.880;11.484;2024-01-06T06:38:31;2.60;;;0.30;;
59571;SDS011;74587;45.880;11.484;2024-01-06T06:40:57;2.83;;;0.30;;
59571;SDS011;74587;45.880;11.484;2024-01-06T06:43:23;1.70;;;0.20;;
59571;SDS011;74587;45.880;11.484;2024-01-06T06:45:49;3.15;;;0.63;;
59571;SDS011;74587;45.880;11.484;2024-01-06T06:48:14;3.87;;;0.70;;
59571;SDS011;74587;45.880;11.484;2024-01-06T06:50:40;16.17;;;11.50;;
59571;SDS011;74587;45.880;11.484;2024-01-06T06:53:06;7.45;;;3.58;;
59571;SDS011;74587;45.880;11.484;2024-01-06T06:55:33;5.15;;;2.30;;
59571;SDS011;74587;45.880;11.484;2024-01-06T06:57:59;6.60;;;2.90;;
59571;SDS011;74587;45.880;11.484;2024-01-06T07:00:24;6.63;;;1.95;;
59571;SDS011;74587;45.880;11.484;2024-01-06T07:02:50;5.87;;;3.40;;
59571;SDS011;74587;45.880;11.484;2024-01-06T07:05:16;6.43;;;3.00;;
59571;SDS011;74587;45.880;11.484;2024-01-06T07:07:42;5.53;;;2.50;;
59571;SDS011;74587;45.880;11.484;2024-01-06T07:10:11;6.32;;;2.38;;
59571;SDS011;74587;45.880;11.484;2024-01-06T07:12:38;6.90;;;3.50;;
59571;SDS011;74587;45.880;11.484;2024-01-06T07:15:04;10.70;;;3.20;;
59571;SDS011;74587;45.880;11.484;2024-01-06T07:17:30;10.27;;;4.47;;
59571;SDS011;74587;45.880;11.484;2024-01-06T07:19:56;13.23;;;7.80;;
59571;SDS011;74587;45.880;11.484;2024-01-06T07:22:21;11.37;;;5.33;;
59571;SDS011;74587;45.880;11.484;2024-01-06T07:24:47;6.82;;;2.40;;
59571;SDS011;74587;45.880;11.484;2024-01-06T07:27:13;6.93;;;2.97;;
59571;SDS011;74587;45.880;11.484;2024-01-06T07:29:40;6.20;;;2.25;;
59571;SDS011;74587;45.880;11.484;2024-01-06T07:32:05;6.33;;;2.70;;
59571;SDS011;74587;45.880;11.484;2024-01-06T07:34:31;5.60;;;1.90;;
59571;SDS011;74587;45.880;11.484;2024-01-06T07:36:58;4.88;;;1.20;;
59571;SDS011;74587;45.880;11.484;2024-01-06T07:39:23;5.72;;;1.52;;
59571;SDS011;74587;45.880;11.484;2024-01-06T07:41:49;5.90;;;2.33;;
59571;SDS011;74587;45.880;11.484;2024-01-06T07:44:15;4.55;;;1.63;;
59571;SDS011;74587;45.880;11.484;2024-01-06T07:46:47;71.28;;;41.38;;
59571;SDS011;74587;45.880;11.484;2024-01-06T07:49:13;6.23;;;2.77;;
59571;SDS011;74587;45.880;11.484;2024-01-06T07:51:39;5.72;;;1.80;;
59571;SDS011;74587;45.880;11.484;2024-01-06T07:54:05;5.57;;;1.50;;
59571;SDS011;74587;45.880;11.484;2024-01-06T07:56:33;5.43;;;1.93;;
59571;SDS011;74587;45.880;11.484;2024-01-06T07:58:59;5.10;;;1.45;;
59571;SDS011;74587;45.880;11.484;2024-01-06T08:01:25;6.43;;;2.50;;
59571;SDS011;74587;45.880;11.484;2024-01-06T08:03:54;7.07;;;2.53;;
59571;SDS011;74587;45.880;11.484;2024-01-06T08:06:20;6.07;;;2.30;;
59571;SDS011;74587;45.880;11.484;2024-01-06T08:08:45;13.80;;;4.68;;
59571;SDS011;74587;45.880;11.484;2024-01-06T08:11:11;13.37;;;7.50;;
59571;SDS011;74587;45.880;11.484;2024-01-06T08:13:37;10.82;;;4.88;;
59571;SDS011;74587;45.880;11.484;2024-01-06T08:16:03;17.15;;;7.90;;
59571;SDS011;74587;45.880;11.484;2024-01-06T08:18:30;22.52;;;10.82;;
59571;SDS011;74587;45.880;11.484;2024-01-06T08:20:56;26.77;;;13.07;;
59571;SDS011;74587;45.880;11.484;2024-01-06T08:23:22;34.70;;;15.23;;
59571;SDS011;74587;45.880;11.484;2024-01-06T08:25:47;40.73;;;18.57;;
59571;SDS011;74587;45.880;11.484;2024-01-06T08:28:13;20.00;;;10.23;;
59571;SDS011;74587;45.880;11.484;2024-01-06T08:30:44;30.65;;;12.73;;
59571;SDS011;74587;45.880;11.484;2024-01-06T08:33:10;28.37;;;13.50;;
59571;SDS011;74587;45.880;11.484;2024-01-06T08:35:36;28.65;;;12.57;;
59571;SDS011;74587;45.880;11.484;2024-01-06T08:38:08;21.05;;;10.10;;
59571;SDS011;74587;45.880;11.484;2024-01-06T08:40:34;14.32;;;7.32;;
59571;SDS011;74587;45.880;11.484;2024-01-06T08:43:00;5.53;;;1.48;;
59571;SDS011;74587;45.880;11.484;2024-01-06T08:45:26;8.43;;;2.73;;
59571;SDS011;74587;45.880;11.484;2024-01-06T08:47:52;14.98;;;7.20;;
59571;SDS011;74587;45.880;11.484;2024-01-06T08:50:17;11.83;;;5.17;;
59571;SDS011;74587;45.880;11.484;2024-01-06T08:52:43;32.28;;;14.57;;
59571;SDS011;74587;45.880;11.484;2024-01-06T08:55:09;28.17;;;13.47;;
59571;SDS011;74587;45.880;11.484;2024-01-06T08:57:34;20.52;;;10.52;;
59571;SDS011;74587;45.880;11.484;2024-01-06T09:00:00;21.43;;;8.80;;
59571;SDS011;74587;45.880;11.484;2024-01-06T09:02:26;16.52;;;7.90;;
59571;SDS011;74587;45.880;11.484;2024-01-06T09:04:52;27.58;;;10.85;;
59571;SDS011;74587;45.880;11.484;2024-01-06T09:07:18;15.30;;;6.47;;
59571;SDS011;74587;45.880;11.484;2024-01-06T09:09:44;17.63;;;7.40;;
59571;SDS011;74587;45.880;11.484;2024-01-06T09:12:09;15.30;;;7.82;;
59571;SDS011;74587;45.880;11.484;2024-01-06T09:14:35;17.93;;;7.70;;
59571;SDS011;74587;45.880;11.484;2024-01-06T09:17:01;9.32;;;3.10;;
59571;SDS011;74587;45.880;11.484;2024-01-06T09:19:27;4.70;;;0.87;;
59571;SDS011;74587;45.880;11.484;2024-01-06T09:21:53;6.60;;;1.60;;
59571;SDS011;74587;45.880;11.484;2024-01-06T09:24:20;5.35;;;1.60;;
59571;SDS011;74587;45.880;11.484;2024-01-06T09:26:46;4.35;;;1.00;;
59571;SDS011;74587;45.880;11.484;2024-01-06T09:29:11;9.77;;;3.80;;
59571;SDS011;74587;45.880;11.484;2024-01-06T09:31:37;17.00;;;6.43;;
59571;SDS011;74587;45.880;11.484;2024-01-06T09:34:03;20.40;;;8.23;;
59571;SDS011;74587;45.880;11.484;2024-01-06T09:36:32;17.90;;;8.07;;
59571;SDS011;74587;45.880;11.484;2024-01-06T09:38:58;30.10;;;14.47;;
59571;SDS011;74587;45.880;11.484;2024-01-06T09:41:24;31.48;;;14.48;;
59571;SDS011;74587;45.880;11.484;2024-01-06T09:43:50;89.80;;;42.40;;
59571;SDS011;74587;45.880;11.484;2024-01-06T09:46:25;63.90;;;27.80;;
59571;SDS011;74587;45.880;11.484;2024-01-06T09:48:53;41.38;;;17.52;;
59571;SDS011;74587;45.880;11.484;2024-01-06T09:51:20;52.53;;;22.13;;
59571;SDS011;74587;45.880;11.484;2024-01-06T09:56:21;50.90;;;26.95;;
59571;SDS011;74587;45.880;11.484;2024-01-06T09:58:50;32.10;;;17.40;;
59571;SDS011;74587;45.880;11.484;2024-01-06T10:01:17;41.38;;;18.00;;
59571;SDS011;74587;45.880;11.484;2024-01-06T10:03:43;37.40;;;15.30;;
59571;SDS011;74587;45.880;11.484;2024-01-06T10:06:15;38.50;;;18.73;;
59571;SDS011;74587;45.880;11.484;2024-01-06T10:08:47;28.17;;;12.93;;
59571;SDS011;74587;45.880;11.484;2024-01-06T10:11:14;32.90;;;16.83;;
59571;SDS011;74587;45.880;11.484;2024-01-06T10:13:40;33.83;;;15.45;;
59571;SDS011;74587;45.880;11.484;2024-01-06T10:16:06;37.47;;;20.05;;
59571;SDS011;74587;45.880;11.484;2024-01-06T10:18:32;38.67;;;20.73;;
59571;SDS011;74587;45.880;11.484;2024-01-06T10:21:02;39.63;;;20.63;;
59571;SDS011;74587;45.880;11.484;2024-01-06T10:23:31;31.73;;;17.83;;
59571;SDS011;74587;45.880;11.484;2024-01-06T10:25:57;29.75;;;17.65;;
59571;SDS011;74587;45.880;11.484;2024-01-06T10:28:24;25.58;;;13.45;;
59571;SDS011;74587;45.880;11.484;2024-01-06T10:30:53;28.13;;;15.68;;
59571;SDS011;74587;45.880;11.484;2024-01-06T10:33:23;29.15;;;14.93;;
59571;SDS011;74587;45.880;11.484;2024-01-06T10:35:50;17.50;;;9.80;;
59571;SDS011;74587;45.880;11.484;2024-01-06T10:38:16;8.15;;;3.85;;
59571;SDS011;74587;45.880;11.484;2024-01-06T10:41:01;10.52;;;3.67;;
59571;SDS011;74587;45.880;11.484;2024-01-06T10:43:32;7.57;;;2.60;;
59571;SDS011;74587;45.880;11.484;2024-01-06T10:46:06;5.45;;;1.90;;
59571;SDS011;74587;45.880;11.484;2024-01-06T10:48:36;4.40;;;1.10;;
59571;SDS011;74587;45.880;11.484;2024-01-06T10:51:10;19.85;;;9.60;;
59571;SDS011;74587;45.880;11.484;2024-01-06T10:53:36;15.77;;;7.78;;
59571;SDS011;74587;45.880;11.484;2024-01-06T10:56:04;14.25;;;6.60;;
59571;SDS011;74587;45.880;11.484;2024-01-06T10:58:33;11.75;;;5.65;;
59571;SDS011;74587;45.880;11.484;2024-01-06T11:01:07;18.00;;;6.27;;
59571;SDS011;74587;45.880;11.484;2024-01-06T11:03:37;9.23;;;3.05;;
59571;SDS011;74587;45.880;11.484;2024-01-06T11:06:04;5.63;;;1.50;;
59571;SDS011;74587;45.880;11.484;2024-01-06T11:08:33;6.20;;;2.30;;
59571;SDS011;74587;45.880;11.484;2024-01-06T11:11:10;9.40;;;2.85;;
59571;SDS011;74587;45.880;11.484;2024-01-06T11:13:35;8.27;;;2.47;;
59571;SDS011;74587;45.880;11.484;2024-01-06T11:16:03;8.35;;;3.42;;
59571;SDS011;74587;45.880;11.484;2024-01-06T11:18:38;7.35;;;2.33;;
59571;SDS011;74587;45.880;11.484;2024-01-06T11:26:38;6.75;;;1.63;;
59571;SDS011;74587;45.880;11.484;2024-01-06T11:29:05;6.22;;;1.45;;
59571;SDS011;74587;45.880;11.484;2024-01-06T11:31:32;12.43;;;3.75;;
59571;SDS011;74587;45.880;11.484;2024-01-06T11:34:15;12.68;;;3.85;;
59571;SDS011;74587;45.880;11.484;2024-01-06T11:36:45;9.00;;;4.20;;
59571;SDS011;74587;45.880;11.484;2024-01-06T11:42:08;11.07;;;3.90;;
59571;SDS011;74587;45.880;11.484;2024-01-06T11:44:39;11.45;;;4.72;;
59571;SDS011;74587;45.880;11.484;2024-01-06T11:47:08;11.90;;;2.80;;
59571;SDS011;74587;45.880;11.484;2024-01-06T11:49:37;6.77;;;1.37;;
59571;SDS011;74587;45.880;11.484;2024-01-06T11:52:03;6.75;;;1.73;;
59571;SDS011;74587;45.880;11.484;2024-01-06T11:54:30;10.10;;;4.00;;
59571;SDS011;74587;45.880;11.484;2024-01-06T11:56:56;7.83;;;3.13;;
59571;SDS011;74587;45.880;11.484;2024-01-06T11:59:22;4.65;;;1.40;;
59571;SDS011;74587;45.880;11.484;2024-01-06T12:01:48;4.05;;;0.95;;
59571;SDS011;74587;45.880;11.484;2024-01-06T12:04:14;4.47;;;0.83;;
59571;SDS011;74587;45.880;11.484;2024-01-06T12:06:41;4.80;;;0.90;;
59571;SDS011;74587;45.880;11.484;2024-01-06T12:09:08;3.42;;;0.98;;
59571;SDS011;74587;45.880;11.484;2024-01-06T12:11:40;7.43;;;2.35;;
59571;SDS011;74587;45.880;11.484;2024-01-06T12:14:06;6.88;;;1.80;;
59571;SDS011;74587;45.880;11.484;2024-01-06T12:16:32;4.72;;;1.90;;
59571;SDS011;74587;45.880;11.484;2024-01-06T12:18:58;3.50;;;0.60;;
59571;SDS011;74587;45.880;11.484;2024-01-06T12:21:29;3.90;;;0.90;;
59571;SDS011;74587;45.880;11.484;2024-01-06T12:24:18;2.63;;;0.52;;
59571;SDS011;74587;45.880;11.484;2024-01-06T12:26:45;3.35;;;0.80;;
59571;SDS011;74587;45.880;11.484;2024-01-06T12:29:12;3.37;;;0.87;;
59571;SDS011;74587;45.880;11.484;2024-01-06T12:31:39;4.03;;;1.02;;
59571;SDS011;74587;45.880;11.484;2024-01-06T12:34:05;6.78;;;2.28;;
59571;SDS011;74587;45.880;11.484;2024-01-06T12:36:35;6.55;;;1.50;;
59571;SDS011;74587;45.880;11.484;2024-01-06T12:39:06;6.00;;;2.00;;
59571;SDS011;74587;45.880;11.484;2024-01-06T12:41:38;5.37;;;1.73;;
59571;SDS011;74587;45.880;11.484;2024-01-06T12:44:08;4.70;;;1.40;;
59571;SDS011;74587;45.880;11.484;2024-01-06T12:46:34;11.95;;;2.40;;
59571;SDS011;74587;45.880;11.484;2024-01-06T12:49:00;7.03;;;2.30;;
59571;SDS011;74587;45.880;11.484;2024-01-06T12:51:26;8.30;;;2.53;;
59571;SDS011;74587;45.880;11.484;2024-01-06T12:53:51;13.70;;;3.60;;
59571;SDS011;74587;45.880;11.484;2024-01-06T12:56:17;61.27;;;15.93;;
59571;SDS011;74587;45.880;11.484;2024-01-06T12:58:43;27.30;;;7.22;;
59571;SDS011;74587;45.880;11.484;2024-01-06T13:01:09;9.25;;;3.10;;
59571;SDS011;74587;45.880;11.484;2024-01-06T13:03:35;8.82;;;2.88;;
59571;SDS011;74587;45.880;11.484;2024-01-06T13:06:01;5.93;;;2.03;;
59571;SDS011;74587;45.880;11.484;2024-01-06T13:08:27;6.50;;;1.92;;
59571;SDS011;74587;45.880;11.484;2024-01-06T13:10:56;5.10;;;1.63;;
59571;SDS011;74587;45.880;11.484;2024-01-06T13:13:22;4.40;;;1.60;;
59571;SDS011;74587;45.880;11.484;2024-01-06T13:15:48;4.30;;;1.70;;
59571;SDS011;74587;45.880;11.484;2024-01-06T13:18:13;5.70;;;1.90;;
59571;SDS011;74587;45.880;11.484;2024-01-06T13:20:41;8.00;;;2.25;;
59571;SDS011;74587;45.880;11.484;2024-01-06T13:23:08;4.60;;;1.23;;
59571;SDS011;74587;45.880;11.484;2024-01-06T13:25:37;4.35;;;0.90;;
59571;SDS011;74587;45.880;11.484;2024-01-06T13:28:06;5.93;;;0.80;;
59571;SDS011;74587;45.880;11.484;2024-01-06T13:30:33;2.78;;;0.30;;
59571;SDS011;74587;45.880;11.484;2024-01-06T13:32:59;1.77;;;0.30;;
59571;SDS011;74587;45.880;11.484;2024-01-06T13:35:25;3.53;;;0.40;;
59571;SDS011;74587;45.880;11.484;2024-01-06T13:37:51;1.38;;;0.10;;
59571;SDS011;74587;45.880;11.484;2024-01-06T13:40:18;2.95;;;0.20;;
59571;SDS011;74587;45.880;11.484;2024-01-06T13:42:50;1.60;;;0.10;;
59571;SDS011;74587;45.880;11.484;2024-01-06T13:45:17;2.88;;;0.52;;
59571;SDS011;74587;45.880;11.484;2024-01-06T13:47:43;2.87;;;0.40;;
59571;SDS011;74587;45.880;11.484;2024-01-06T13:50:12;2.25;;;0.10;;
59571;SDS011;74587;45.880;11.484;2024-01-06T13:52:40;1.85;;;0.10;;
59571;SDS011;74587;45.880;11.484;2024-01-06T13:55:06;3.30;;;0.50;;
59571;SDS011;74587;45.880;11.484;2024-01-06T13:57:33;3.30;;;0.70;;
59571;SDS011;74587;45.880;11.484;2024-01-06T13:59:59;3.53;;;0.88;;
59571;SDS011;74587;45.880;11.484;2024-01-06T14:02:25;2.92;;;0.50;;
59571;SDS011;74587;45.880;11.484;2024-01-06T14:04:51;3.60;;;0.30;;
59571;SDS011;74587;45.880;11.484;2024-01-06T14:07:17;5.90;;;1.43;;
59571;SDS011;74587;45.880;11.484;2024-01-06T14:09:47;9.55;;;2.65;;
59571;SDS011;74587;45.880;11.484;2024-01-06T14:12:13;15.40;;;4.35;;
59571;SDS011;74587;45.880;11.484;2024-01-06T14:14:39;15.18;;;4.35;;
59571;SDS011;74587;45.880;11.484;2024-01-06T14:17:08;7.93;;;3.63;;
59571;SDS011;74587;45.880;11.484;2024-01-06T14:19:34;22.03;;;8.53;;
59571;SDS011;74587;45.880;11.484;2024-01-06T14:22:00;28.00;;;12.63;;
59571;SDS011;74587;45.880;11.484;2024-01-06T14:24:25;20.03;;;10.20;;
59571;SDS011;74587;45.880;11.484;2024-01-06T14:26:53;26.73;;;12.88;;
59571;SDS011;74587;45.880;11.484;2024-01-06T14:29:20;12.63;;;4.82;;
59571;SDS011;74587;45.880;11.484;2024-01-06T14:31:46;6.25;;;1.90;;
59571;SDS011;74587;45.880;11.484;2024-01-06T14:34:12;6.23;;;2.10;;
59571;SDS011;74587;45.880;11.484;2024-01-06T14:36:38;6.88;;;2.13;;
59571;SDS011;74587;45.880;11.484;2024-01-06T14:39:05;4.53;;;1.05;;